createdAt,value
2022-10-21T00:01:44.373Z,17.30
2022-10-21T00:04:31.580Z,10.43
2022-10-21T00:07:16.955Z,8.75
2022-10-21T00:10:03.414Z,8.18
2022-10-21T00:12:48.463Z,10.73
2022-10-21T00:15:33.867Z,10.60
2022-10-21T00:18:19.419Z,14.00
2022-10-21T00:21:13.580Z,10.88
2022-10-21T00:23:58.667Z,12.13
2022-10-21T00:26:44.064Z,10.00
2022-10-21T00:29:30.089Z,8.90
2022-10-21T00:32:15.655Z,9.80
2022-10-21T00:35:01.073Z,12.30
2022-10-21T00:37:46.358Z,8.43
2022-10-21T00:40:32.256Z,10.80
2022-10-21T00:43:18.028Z,10.20
2022-10-21T00:46:07.072Z,10.65
2022-10-21T00:48:57.681Z,10.50
2022-10-21T00:51:46.116Z,8.85
2022-10-21T00:54:31.645Z,9.43
2022-10-21T00:57:19.391Z,9.98
2022-10-21T01:00:06.900Z,9.95
2022-10-21T01:02:52.164Z,10.82
2022-10-21T01:05:39.287Z,10.85
2022-10-21T01:08:24.986Z,11.23
2022-10-21T01:11:16.807Z,16.42
2022-10-21T01:14:16.781Z,15.80
2022-10-21T01:17:26.238Z,9.63
2022-10-21T01:20:50.350Z,12.35
2022-10-21T01:24:04.150Z,9.15
2022-10-21T01:27:11.168Z,9.85
2022-10-21T01:30:07.457Z,8.27
2022-10-21T01:33:27.921Z,11.63
2022-10-21T01:36:29.137Z,13.70
2022-10-21T01:39:19.727Z,11.70
2022-10-21T01:42:36.275Z,10.93
2022-10-21T01:45:33.568Z,10.05
2022-10-21T01:48:23.513Z,8.90
2022-10-21T01:51:10.022Z,15.27
2022-10-21T01:54:03.242Z,9.38
2022-10-21T01:56:49.880Z,13.35
2022-10-21T01:59:35.901Z,8.30
2022-10-21T02:02:22.650Z,12.75
2022-10-21T02:05:15.974Z,9.35
2022-10-21T02:08:01.961Z,14.57
2022-10-21T02:10:50.463Z,12.48
2022-10-21T02:14:05.096Z,12.10
2022-10-21T02:16:52.462Z,9.85
2022-10-21T02:19:37.640Z,11.43
2022-10-21T02:22:24.679Z,10.85
2022-10-21T02:25:25.289Z,8.90
2022-10-21T02:28:12.686Z,9.18
2022-10-21T02:31:14.119Z,10.00
2022-10-21T02:34:19.383Z,9.25
2022-10-21T02:37:16.135Z,10.40
2022-10-21T02:40:21.191Z,9.23
2022-10-21T02:43:12.074Z,11.18
2022-10-21T02:46:05.402Z,9.57
2022-10-21T02:48:50.724Z,11.20
2022-10-21T02:51:36.246Z,10.23
2022-10-21T02:54:21.502Z,10.00
2022-10-21T02:57:06.775Z,9.18
2022-10-21T02:59:52.185Z,9.48
2022-10-21T03:02:37.689Z,9.35
2022-10-21T03:05:23.122Z,10.40
2022-10-21T03:08:08.693Z,9.02
2022-10-21T03:10:54.282Z,12.50
2022-10-21T03:13:39.464Z,12.80
2022-10-21T03:16:24.816Z,10.40
2022-10-21T03:19:10.870Z,12.32
2022-10-21T03:21:56.357Z,11.68
2022-10-21T03:24:41.688Z,11.18
2022-10-21T03:27:27.459Z,15.30
2022-10-21T03:30:12.395Z,13.75
2022-10-21T03:32:57.881Z,11.38
2022-10-21T03:35:43.141Z,11.80
2022-10-21T03:38:28.578Z,11.77
2022-10-21T03:41:14.001Z,11.57
2022-10-21T03:43:59.257Z,26.25
2022-10-21T03:46:44.712Z,11.95
2022-10-21T03:49:30.253Z,12.40
2022-10-21T03:52:15.642Z,11.07
2022-10-21T03:55:01.127Z,13.88
2022-10-21T03:57:47.617Z,13.65
2022-10-21T04:00:33.379Z,10.88
2022-10-21T04:03:18.746Z,12.15
2022-10-21T04:06:04.035Z,13.40
2022-10-21T04:08:49.612Z,12.60
2022-10-21T04:11:34.888Z,11.80
2022-10-21T04:14:20.583Z,12.60
2022-10-21T04:17:07.841Z,10.45
2022-10-21T04:19:53.370Z,13.80
2022-10-21T04:22:39.147Z,15.25
2022-10-21T04:25:24.789Z,13.82
2022-10-21T04:28:10.428Z,16.08
2022-10-21T04:30:55.537Z,14.98
2022-10-21T04:33:40.831Z,14.80
2022-10-21T04:36:26.314Z,13.38
2022-10-21T04:39:11.791Z,12.32
2022-10-21T04:41:57.339Z,12.90
2022-10-21T04:44:42.626Z,12.77
2022-10-21T04:47:28.765Z,12.82
2022-10-21T04:50:14.348Z,11.82
2022-10-21T04:52:59.833Z,13.57
2022-10-21T04:55:45.584Z,17.08
2022-10-21T04:58:30.817Z,12.57
2022-10-21T05:01:15.994Z,15.50
2022-10-21T05:04:01.643Z,13.38
2022-10-21T05:06:46.896Z,13.77
2022-10-21T05:09:32.396Z,15.25
2022-10-21T05:12:17.647Z,14.05
2022-10-21T05:15:03.250Z,13.05
2022-10-21T05:17:48.636Z,12.23
2022-10-21T05:20:34.073Z,13.48
2022-10-21T05:23:20.563Z,12.27
2022-10-21T05:26:05.989Z,13.70
2022-10-21T05:28:51.217Z,18.50
2022-10-21T05:31:36.901Z,13.00
2022-10-21T05:34:22.112Z,10.15
2022-10-21T05:37:07.599Z,12.57
2022-10-21T05:39:52.950Z,12.32
2022-10-21T05:42:38.612Z,12.13
2022-10-21T05:45:23.778Z,13.88
2022-10-21T05:48:09.124Z,12.65
2022-10-21T05:50:55.412Z,13.63
2022-10-21T05:53:40.464Z,15.02
2022-10-21T05:56:25.825Z,14.57
2022-10-21T05:59:11.582Z,16.95
2022-10-21T06:01:56.708Z,13.30
2022-10-21T06:04:42.215Z,32.13
2022-10-21T06:07:27.446Z,16.42
2022-10-21T06:10:12.783Z,21.02
2022-10-21T06:12:58.025Z,12.82
2022-10-21T06:15:46.342Z,16.77
2022-10-21T06:18:36.098Z,15.73
2022-10-21T06:21:21.597Z,13.68
2022-10-21T06:24:06.888Z,12.40
2022-10-21T06:26:52.325Z,17.05
2022-10-21T06:29:38.286Z,14.85
2022-10-21T06:32:23.423Z,17.00
2022-10-21T06:35:09.097Z,15.73
2022-10-21T06:37:54.476Z,16.77
2022-10-21T06:40:39.943Z,13.10
2022-10-21T06:43:25.355Z,14.65
2022-10-21T06:46:12.998Z,14.00
2022-10-21T06:48:58.138Z,20.05
2022-10-21T06:51:43.467Z,13.63
2022-10-21T06:54:28.866Z,14.75
2022-10-21T06:57:14.245Z,16.42
2022-10-21T06:59:59.538Z,12.80
2022-10-21T07:02:45.027Z,15.75
2022-10-21T07:05:30.439Z,14.70
2022-10-21T07:08:18.021Z,12.65
2022-10-21T07:11:05.405Z,17.35
2022-10-21T07:13:50.477Z,15.98
2022-10-21T07:16:36.700Z,14.93
2022-10-21T07:19:22.066Z,15.63
2022-10-21T07:22:07.588Z,14.60
2022-10-21T07:24:53.095Z,13.70
2022-10-21T07:27:38.770Z,14.30
2022-10-21T07:30:24.896Z,12.68
2022-10-21T07:33:11.236Z,14.60
2022-10-21T07:36:08.241Z,14.90
2022-10-21T07:38:55.153Z,17.83
2022-10-21T07:41:44.468Z,18.73
2022-10-21T07:44:29.682Z,14.50
2022-10-21T07:47:15.214Z,18.15
2022-10-21T07:50:00.533Z,21.35
2022-10-21T07:52:53.439Z,13.65
2022-10-21T07:55:45.918Z,15.30
2022-10-21T07:58:31.521Z,16.38
2022-10-21T08:01:18.162Z,13.85
2022-10-21T08:04:03.461Z,12.00
2022-10-21T08:06:49.398Z,15.13
2022-10-21T08:09:34.763Z,14.88
2022-10-21T08:12:20.149Z,14.63
2022-10-21T08:15:05.891Z,12.02
2022-10-21T08:17:51.194Z,13.18
2022-10-21T08:20:41.289Z,17.15
2022-10-21T08:23:26.572Z,14.15
2022-10-21T08:26:14.206Z,15.05
2022-10-21T08:28:59.814Z,14.65
2022-10-21T08:31:44.864Z,16.67
2022-10-21T08:34:30.324Z,12.98
2022-10-21T08:37:15.913Z,17.70
2022-10-21T08:40:01.309Z,17.08
2022-10-21T08:42:47.718Z,14.35
2022-10-21T08:45:36.661Z,15.05
2022-10-21T08:48:26.363Z,18.52
2022-10-21T08:51:21.744Z,14.23
2022-10-21T08:54:33.882Z,13.68
2022-10-21T08:57:19.940Z,13.80
2022-10-21T09:00:16.080Z,17.90
2022-10-21T09:03:09.392Z,16.25
2022-10-21T09:06:18.222Z,16.05
2022-10-21T09:09:41.213Z,19.58
2022-10-21T09:15:27.299Z,15.88
2022-10-21T09:18:38.455Z,16.77
2022-10-21T09:21:31.202Z,16.60
2022-10-21T09:24:36.568Z,16.85
2022-10-21T09:27:31.826Z,15.93
2022-10-21T09:30:24.306Z,14.57
2022-10-21T09:33:25.881Z,18.70
2022-10-21T09:36:26.186Z,15.68
2022-10-21T09:39:24.267Z,14.85
2022-10-21T09:42:29.157Z,19.13
2022-10-21T09:45:37.546Z,16.42
2022-10-21T09:48:41.793Z,16.17
2022-10-21T09:51:40.315Z,19.45
2022-10-21T09:54:29.572Z,15.65
2022-10-21T09:57:35.936Z,17.27
2022-10-21T10:00:21.204Z,16.08
2022-10-21T10:03:06.553Z,16.05
2022-10-21T10:05:52.110Z,17.83
2022-10-21T10:33:34.494Z,15.90
2022-10-21T10:36:29.805Z,16.65
2022-10-21T10:39:36.659Z,15.63
2022-10-21T10:42:42.697Z,17.90
2022-10-21T10:45:28.268Z,20.75
2022-10-21T10:48:22.911Z,16.27
2022-10-21T10:51:27.895Z,15.18
2022-10-21T10:54:20.575Z,20.35
2022-10-21T10:57:13.056Z,19.40
2022-10-21T11:03:03.322Z,20.23
2022-10-21T11:05:52.052Z,17.25
2022-10-21T11:08:42.956Z,19.50
2022-10-21T11:11:41.053Z,17.52
2022-10-21T11:14:26.491Z,16.20
2022-10-21T11:17:19.120Z,17.33
2022-10-21T11:20:27.321Z,20.70
2022-10-21T11:23:36.697Z,17.33
2022-10-21T11:26:37.283Z,18.48
2022-10-21T11:29:50.022Z,17.90
2022-10-21T11:32:58.114Z,17.33
2022-10-21T11:35:53.125Z,18.30
2022-10-21T11:38:57.574Z,19.70
2022-10-21T11:41:54.726Z,16.98
2022-10-21T11:44:54.841Z,15.10
2022-10-21T11:47:56.809Z,20.00
2022-10-21T11:51:11.520Z,22.13
2022-10-21T11:54:18.070Z,17.02
2022-10-21T11:57:33.554Z,19.13
2022-10-21T12:00:22.714Z,19.35
2022-10-21T12:03:31.601Z,18.42
2022-10-21T12:06:25.620Z,25.10
2022-10-21T12:09:17.473Z,19.40
2022-10-21T12:12:10.990Z,21.40
2022-10-21T12:15:02.517Z,18.30
2022-10-21T12:17:49.707Z,19.50
2022-10-21T12:20:35.231Z,20.13
2022-10-21T12:23:24.294Z,18.83
2022-10-21T12:26:26.699Z,20.75
2022-10-21T12:29:26.934Z,18.15
2022-10-21T12:32:23.467Z,23.95
2022-10-21T12:35:14.597Z,23.83
2022-10-21T12:38:00.651Z,19.58
2022-10-21T12:40:46.543Z,18.35
2022-10-21T12:43:32.006Z,24.35
2022-10-21T12:46:25.419Z,26.50
2022-10-21T12:49:10.490Z,20.15
2022-10-21T12:52:05.512Z,20.20
2022-10-21T12:54:54.030Z,18.58
2022-10-21T12:57:41.019Z,19.08
2022-10-21T13:00:30.678Z,19.98
2022-10-21T13:03:18.840Z,22.80
2022-10-21T13:06:05.247Z,20.85
2022-10-21T13:08:55.379Z,23.95
2022-10-21T13:11:41.046Z,25.45
2022-10-21T13:14:51.197Z,24.80
2022-10-21T13:17:56.706Z,24.23
2022-10-21T13:20:46.115Z,23.30
2022-10-21T13:23:37.084Z,25.83
2022-10-21T13:26:25.903Z,30.42
2022-10-21T13:29:15.403Z,23.55
2022-10-21T13:32:11.179Z,24.35
2022-10-21T13:35:02.470Z,22.52
2022-10-21T13:37:56.360Z,22.00
2022-10-21T13:40:48.626Z,23.10
2022-10-21T13:43:54.239Z,22.95
2022-10-21T13:46:43.830Z,23.70
2022-10-21T13:49:32.755Z,22.38
2022-10-21T13:52:18.487Z,21.67
2022-10-21T13:55:05.853Z,17.77
2022-10-21T13:57:54.618Z,24.23
2022-10-21T14:00:39.875Z,19.30
2022-10-21T14:03:26.288Z,16.98
2022-10-21T14:06:18.675Z,11.75
2022-10-21T14:09:08.104Z,15.95
2022-10-21T14:12:00.271Z,12.43
2022-10-21T14:14:47.945Z,13.85
2022-10-21T14:17:35.400Z,15.40
2022-10-21T14:20:27.930Z,12.98
2022-10-21T14:23:19.147Z,13.55
2022-10-21T14:26:09.173Z,12.47
2022-10-21T14:28:54.630Z,14.15
2022-10-21T14:31:44.168Z,14.60
2022-10-21T14:34:34.366Z,14.30
2022-10-21T14:37:20.838Z,14.63
2022-10-21T14:40:18.256Z,15.65
2022-10-21T14:43:17.218Z,18.52
2022-10-21T14:46:06.194Z,19.50
2022-10-21T14:48:56.336Z,23.08
2022-10-21T14:51:41.943Z,18.70
2022-10-21T14:54:49.546Z,20.10
2022-10-21T14:57:44.593Z,19.75
2022-10-21T15:00:34.534Z,16.52
2022-10-21T15:03:43.679Z,18.33
2022-10-21T15:06:32.693Z,22.23
2022-10-21T15:09:20.217Z,22.52
2022-10-21T15:12:19.123Z,15.38
2022-10-21T15:15:25.800Z,18.80
2022-10-21T15:18:32.907Z,21.25
2022-10-21T15:21:25.149Z,19.33
2022-10-21T15:27:02.677Z,19.00
2022-10-21T15:29:48.789Z,21.83
2022-10-21T15:32:33.906Z,24.92
2022-10-21T15:35:21.669Z,20.13
2022-10-21T15:38:06.668Z,19.85
2022-10-21T15:40:52.173Z,22.67
2022-10-21T15:43:37.667Z,19.55
2022-10-21T15:46:25.625Z,20.02
2022-10-21T15:49:22.015Z,20.80
2022-10-21T15:52:07.561Z,16.33
2022-10-21T15:54:53.801Z,18.13
2022-10-21T15:57:41.856Z,14.57
2022-10-21T16:00:27.171Z,19.42
2022-10-21T16:03:12.471Z,18.20
2022-10-21T16:05:58.154Z,18.55
2022-10-21T16:08:43.880Z,18.33
2022-10-21T16:11:40.694Z,16.67
2022-10-21T16:14:29.314Z,18.60
2022-10-21T16:17:15.287Z,21.05
2022-10-21T16:20:00.703Z,19.40
2022-10-21T16:22:45.988Z,23.33
2022-10-21T16:25:33.348Z,16.40
2022-10-21T16:28:18.697Z,20.50
2022-10-21T16:31:05.748Z,17.42
2022-10-21T16:33:51.026Z,20.45
2022-10-21T16:36:37.906Z,16.17
2022-10-21T16:39:25.319Z,13.48
2022-10-21T16:42:10.462Z,16.08
2022-10-21T16:44:55.766Z,14.93
2022-10-21T16:47:48.385Z,14.90
2022-10-21T16:53:29.102Z,15.73
2022-10-21T16:56:14.525Z,17.63
2022-10-21T16:58:59.847Z,14.90
2022-10-21T17:01:45.303Z,15.50
2022-10-21T17:04:30.586Z,16.10
2022-10-21T17:07:16.096Z,22.33
2022-10-21T17:10:02.133Z,19.77
2022-10-21T17:12:47.459Z,21.73
2022-10-21T17:15:32.926Z,16.88
2022-10-21T17:18:18.153Z,13.93
2022-10-21T17:21:04.262Z,16.67
2022-10-21T17:23:50.670Z,23.02
2022-10-21T17:26:36.700Z,18.90
2022-10-21T17:29:22.163Z,16.65
2022-10-21T17:32:08.069Z,19.42
2022-10-21T17:34:53.665Z,17.80
2022-10-21T17:37:39.300Z,18.10
2022-10-21T17:40:26.483Z,11.95
2022-10-21T17:43:12.121Z,18.80
2022-10-21T17:45:57.740Z,17.67
2022-10-21T17:48:43.016Z,20.25
2022-10-21T17:51:30.175Z,23.65
2022-10-21T17:54:16.556Z,20.45
2022-10-21T17:57:02.814Z,22.95
2022-10-21T17:59:50.415Z,25.45
2022-10-21T18:02:36.895Z,22.02
2022-10-21T18:05:22.479Z,19.67
2022-10-21T18:08:07.758Z,21.70
2022-10-21T18:10:58.895Z,23.95
2022-10-21T18:13:44.863Z,24.55
2022-10-21T18:16:30.403Z,21.10
2022-10-21T18:19:16.667Z,30.80
2022-10-21T18:22:02.649Z,25.63
2022-10-21T18:24:48.255Z,28.67
2022-10-21T18:27:33.654Z,26.38
2022-10-21T18:30:19.140Z,19.85
2022-10-21T18:33:04.579Z,25.15
2022-10-21T18:35:50.306Z,24.10
2022-10-21T18:38:35.956Z,26.25
2022-10-21T18:41:21.821Z,29.42
2022-10-21T18:44:09.010Z,26.95
2022-10-21T18:46:55.999Z,25.80
2022-10-21T18:49:41.866Z,60.70
2022-10-21T18:52:27.394Z,57.63
2022-10-21T18:55:12.900Z,34.85
2022-10-21T18:57:58.360Z,26.45
2022-10-21T19:00:43.783Z,23.77
2022-10-21T19:03:29.090Z,28.50
2022-10-21T19:06:42.011Z,22.85
2022-10-21T19:12:17.369Z,17.48
2022-10-21T19:15:04.571Z,25.02
2022-10-21T19:17:49.722Z,31.15
2022-10-21T19:20:35.010Z,26.27
2022-10-21T19:23:20.673Z,22.45
2022-10-21T19:26:08.147Z,24.40
2022-10-21T19:29:03.169Z,23.33
2022-10-21T19:31:49.240Z,28.92
2022-10-21T19:34:34.868Z,30.73
2022-10-21T19:37:20.123Z,25.45
2022-10-21T19:40:05.883Z,22.58
2022-10-21T19:42:50.917Z,24.95
2022-10-21T19:45:37.195Z,22.45
2022-10-21T19:48:22.439Z,24.92
2022-10-21T19:51:15.463Z,20.02
2022-10-21T19:54:07.109Z,21.58
2022-10-21T19:56:52.449Z,25.52
2022-10-21T19:59:37.939Z,24.48
2022-10-21T20:02:23.160Z,25.90
2022-10-21T20:05:09.479Z,24.77
2022-10-21T20:07:54.780Z,21.77
2022-10-21T20:10:40.195Z,19.38
2022-10-21T20:13:25.524Z,24.60
2022-10-21T20:16:20.207Z,20.65
2022-10-21T20:19:06.709Z,23.23
2022-10-21T20:21:52.184Z,20.42
2022-10-21T20:24:37.539Z,26.38
2022-10-21T20:27:22.833Z,22.73
2022-10-21T20:30:09.104Z,26.27
2022-10-21T20:32:54.213Z,20.23
2022-10-21T20:35:41.302Z,27.40
2022-10-21T20:38:26.571Z,24.42
2022-10-21T20:41:17.543Z,30.00
2022-10-21T20:44:04.800Z,20.13
2022-10-21T20:46:50.247Z,22.92
2022-10-21T20:49:35.583Z,18.88
2022-10-21T20:52:20.739Z,21.00
2022-10-21T20:55:06.472Z,19.35
2022-10-21T20:57:51.656Z,15.38
2022-10-21T21:00:37.606Z,14.88
2022-10-21T21:03:22.933Z,20.27
2022-10-21T21:06:09.832Z,16.98
2022-10-21T21:12:03.221Z,14.80
2022-10-21T21:14:49.375Z,16.38
2022-10-21T21:17:34.829Z,12.77
2022-10-21T21:20:20.279Z,12.40
2022-10-21T21:23:05.441Z,12.48
2022-10-21T21:25:50.858Z,11.88
2022-10-21T21:28:36.995Z,13.00
2022-10-21T21:31:24.319Z,12.65
2022-10-21T21:34:10.502Z,11.65
2022-10-21T21:36:55.799Z,13.80
2022-10-21T21:39:41.214Z,13.30
2022-10-21T21:42:26.689Z,15.13
2022-10-21T21:45:12.218Z,20.35
2022-10-21T21:47:57.606Z,13.80
2022-10-21T21:50:43.523Z,16.15
2022-10-21T21:53:29.158Z,12.55
2022-10-21T21:56:14.639Z,9.95
2022-10-21T21:58:59.905Z,12.50
2022-10-21T22:01:45.391Z,12.55
2022-10-21T22:04:30.741Z,12.95
2022-10-21T22:07:16.333Z,10.57
2022-10-21T22:10:01.823Z,10.80
2022-10-21T22:12:47.276Z,10.23
2022-10-21T22:15:48.737Z,13.40
2022-10-21T22:18:34.078Z,15.80
2022-10-21T22:21:20.179Z,12.32
2022-10-21T22:24:05.594Z,12.90
2022-10-21T22:26:50.969Z,14.27
2022-10-21T22:29:36.509Z,15.52
2022-10-21T22:32:21.826Z,19.50
2022-10-21T22:35:09.184Z,21.85
2022-10-21T22:37:54.642Z,15.95
2022-10-21T22:40:40.022Z,16.58
2022-10-21T22:43:26.855Z,16.02
2022-10-21T22:46:29.359Z,14.57
2022-10-21T22:49:17.159Z,17.15
2022-10-21T22:52:02.531Z,15.10
2022-10-21T22:54:49.921Z,15.88
2022-10-21T22:57:35.164Z,17.48
2022-10-21T23:00:20.848Z,17.08
2022-10-21T23:03:07.504Z,17.45
2022-10-21T23:05:54.963Z,16.88
2022-10-21T23:08:40.508Z,18.58
2022-10-21T23:11:26.120Z,13.70
2022-10-21T23:14:11.298Z,14.63
2022-10-21T23:16:56.529Z,14.45
2022-10-21T23:19:41.786Z,19.20
2022-10-21T23:22:27.161Z,19.42
2022-10-21T23:25:12.494Z,19.95
2022-10-21T23:27:58.372Z,19.02
2022-10-21T23:30:43.755Z,19.67
2022-10-21T23:33:28.894Z,17.17
2022-10-21T23:36:14.368Z,17.48
2022-10-21T23:38:59.560Z,15.55
2022-10-21T23:41:45.176Z,19.70
2022-10-21T23:44:30.729Z,18.35
2022-10-21T23:47:16.235Z,19.73
2022-10-21T23:50:01.788Z,22.20
2022-10-21T23:52:47.161Z,20.35
2022-10-21T23:58:19.032Z,20.23
